South Seaville, New Jersey
Current Conditions -  °F | °C
As of 1:55 PM on Sunday 23 Nov 2014 (Local Time) from KWWD Reporting Station
Clear Clear  
Wind Chill: 13°   Ceiling: Unl
Heat Index: 13°   Visibility: 10mi
Dew Point:   Wind: 7mph
Humidity: 58%   Direction: 190°S
Pressure: 30.14"   Gusts: NA
Location:  39.18°N, 74.76°W
Report Text: KWWD 231855Z AUTO 19006KT 10SM CLR 13/05 A3014 RMK AO1
Loading
Personal Weather Stations






























Interactive Weather Map New forecast layout! Learn more

10-Day Weather Forecast

Advertisements
Track Severe Weather on mobile